sensor_id;sensor_type;location;lat;lon;timestamp;P1;durP1;ratioP1;P2;durP2;ratioP2
38629;SDS011;24384;51.988;4.644;2022-08-19T00:01:20;8.65;;;5.65;;
38629;SDS011;24384;51.988;4.644;2022-08-19T00:03:46;7.28;;;5.05;;
38629;SDS011;24384;51.988;4.644;2022-08-19T00:06:12;6.63;;;4.50;;
38629;SDS011;24384;51.988;4.644;2022-08-19T00:08:38;6.47;;;4.78;;
38629;SDS011;24384;51.988;4.644;2022-08-19T00:11:04;7.97;;;3.97;;
38629;SDS011;24384;51.988;4.644;2022-08-19T00:13:30;9.25;;;6.10;;
38629;SDS011;24384;51.988;4.644;2022-08-19T00:15:55;83.22;;;4.57;;
38629;SDS011;24384;51.988;4.644;2022-08-19T00:18:21;52.03;;;4.35;;
38629;SDS011;24384;51.988;4.644;2022-08-19T00:20:46;8.60;;;5.43;;
38629;SDS011;24384;51.988;4.644;2022-08-19T00:23:12;9.95;;;5.53;;
38629;SDS011;24384;51.988;4.644;2022-08-19T00:25:38;14.80;;;4.40;;
38629;SDS011;24384;51.988;4.644;2022-08-19T00:28:04;7.20;;;3.90;;
38629;SDS011;24384;51.988;4.644;2022-08-19T00:30:30;79.05;;;3.22;;
38629;SDS011;24384;51.988;4.644;2022-08-19T00:32:56;169.40;;;5.55;;
38629;SDS011;24384;51.988;4.644;2022-08-19T00:35:21;77.15;;;7.22;;
38629;SDS011;24384;51.988;4.644;2022-08-19T00:37:47;9.98;;;6.50;;
38629;SDS011;24384;51.988;4.644;2022-08-19T00:40:14;13.10;;;6.97;;
38629;SDS011;24384;51.988;4.644;2022-08-19T00:42:43;8.02;;;4.85;;
38629;SDS011;24384;51.988;4.644;2022-08-19T00:45:15;6.80;;;3.90;;
38629;SDS011;24384;51.988;4.644;2022-08-19T00:47:45;7.05;;;4.20;;
38629;SDS011;24384;51.988;4.644;2022-08-19T00:50:12;6.18;;;4.28;;
38629;SDS011;24384;51.988;4.644;2022-08-19T00:52:41;9.18;;;5.57;;
38629;SDS011;24384;51.988;4.644;2022-08-19T00:55:10;9.52;;;4.32;;
38629;SDS011;24384;51.988;4.644;2022-08-19T00:57:40;11.05;;;5.65;;
38629;SDS011;24384;51.988;4.644;2022-08-19T01:00:11;9.55;;;7.45;;
38629;SDS011;24384;51.988;4.644;2022-08-19T01:02:38;11.65;;;7.60;;
38629;SDS011;24384;51.988;4.644;2022-08-19T01:05:06;13.38;;;8.05;;
38629;SDS011;24384;51.988;4.644;2022-08-19T01:07:35;16.95;;;10.05;;
38629;SDS011;24384;51.988;4.644;2022-08-19T01:10:02;7.15;;;3.55;;
38629;SDS011;24384;51.988;4.644;2022-08-19T01:12:28;23.08;;;2.72;;
38629;SDS011;24384;51.988;4.644;2022-08-19T01:14:55;11.43;;;2.92;;
38629;SDS011;24384;51.988;4.644;2022-08-19T01:17:21;8.02;;;2.35;;
38629;SDS011;24384;51.988;4.644;2022-08-19T01:19:47;4.75;;;2.58;;
38629;SDS011;24384;51.988;4.644;2022-08-19T01:24:48;9.63;;;5.07;;
38629;SDS011;24384;51.988;4.644;2022-08-19T01:27:13;10.88;;;7.40;;
38629;SDS011;24384;51.988;4.644;2022-08-19T01:29:41;11.77;;;6.78;;
38629;SDS011;24384;51.988;4.644;2022-08-19T01:32:07;17.15;;;9.57;;
38629;SDS011;24384;51.988;4.644;2022-08-19T01:34:37;18.17;;;9.35;;
38629;SDS011;24384;51.988;4.644;2022-08-19T01:37:10;14.93;;;9.52;;
38629;SDS011;24384;51.988;4.644;2022-08-19T01:39:36;11.77;;;5.47;;
38629;SDS011;24384;51.988;4.644;2022-08-19T01:42:04;7.07;;;4.03;;
38629;SDS011;24384;51.988;4.644;2022-08-19T01:44:31;11.98;;;7.35;;
38629;SDS011;24384;51.988;4.644;2022-08-19T01:46:56;5.40;;;2.80;;
38629;SDS011;24384;51.988;4.644;2022-08-19T01:49:23;6.65;;;2.90;;
38629;SDS011;24384;51.988;4.644;2022-08-19T01:51:50;5.32;;;3.05;;
38629;SDS011;24384;51.988;4.644;2022-08-19T01:54:17;5.75;;;2.42;;
38629;SDS011;24384;51.988;4.644;2022-08-19T01:56:43;8.88;;;5.63;;
38629;SDS011;24384;51.988;4.644;2022-08-19T01:59:14;8.30;;;5.70;;
38629;SDS011;24384;51.988;4.644;2022-08-19T02:01:42;9.77;;;7.13;;
38629;SDS011;24384;51.988;4.644;2022-08-19T02:04:08;9.18;;;6.03;;
38629;SDS011;24384;51.988;4.644;2022-08-19T02:06:33;12.93;;;8.63;;
38629;SDS011;24384;51.988;4.644;2022-08-19T02:08:59;83.40;;;9.68;;
38629;SDS011;24384;51.988;4.644;2022-08-19T02:11:32;13.95;;;9.75;;
38629;SDS011;24384;51.988;4.644;2022-08-19T02:14:01;13.73;;;10.40;;
38629;SDS011;24384;51.988;4.644;2022-08-19T02:16:29;13.25;;;9.75;;
38629;SDS011;24384;51.988;4.644;2022-08-19T02:18:55;14.27;;;10.00;;
38629;SDS011;24384;51.988;4.644;2022-08-19T02:21:22;13.13;;;10.55;;
38629;SDS011;24384;51.988;4.644;2022-08-19T02:23:48;16.95;;;10.48;;
38629;SDS011;24384;51.988;4.644;2022-08-19T02:26:15;17.13;;;10.18;;
38629;SDS011;24384;51.988;4.644;2022-08-19T02:28:41;22.15;;;11.88;;
38629;SDS011;24384;51.988;4.644;2022-08-19T02:31:11;15.38;;;11.05;;
38629;SDS011;24384;51.988;4.644;2022-08-19T02:33:38;21.52;;;12.02;;
38629;SDS011;24384;51.988;4.644;2022-08-19T02:36:04;16.85;;;8.95;;
38629;SDS011;24384;51.988;4.644;2022-08-19T02:38:31;14.45;;;9.80;;
38629;SDS011;24384;51.988;4.644;2022-08-19T02:41:02;14.63;;;8.90;;
38629;SDS011;24384;51.988;4.644;2022-08-19T02:43:31;8.55;;;6.82;;
38629;SDS011;24384;51.988;4.644;2022-08-19T02:45:57;8.70;;;5.68;;
38629;SDS011;24384;51.988;4.644;2022-08-19T02:48:23;9.98;;;7.53;;
38629;SDS011;24384;51.988;4.644;2022-08-19T02:50:51;16.63;;;9.23;;
38629;SDS011;24384;51.988;4.644;2022-08-19T02:53:23;7.35;;;5.70;;
38629;SDS011;24384;51.988;4.644;2022-08-19T02:55:51;17.27;;;12.80;;
38629;SDS011;24384;51.988;4.644;2022-08-19T02:58:17;13.70;;;8.73;;
38629;SDS011;24384;51.988;4.644;2022-08-19T03:00:44;10.88;;;7.82;;
38629;SDS011;24384;51.988;4.644;2022-08-19T03:03:14;16.75;;;9.32;;
38629;SDS011;24384;51.988;4.644;2022-08-19T03:05:40;12.70;;;8.88;;
38629;SDS011;24384;51.988;4.644;2022-08-19T03:08:08;12.20;;;8.18;;
38629;SDS011;24384;51.988;4.644;2022-08-19T03:10:46;11.98;;;6.88;;
38629;SDS011;24384;51.988;4.644;2022-08-19T03:13:13;10.10;;;7.97;;
38629;SDS011;24384;51.988;4.644;2022-08-19T03:15:41;14.60;;;8.90;;
38629;SDS011;24384;51.988;4.644;2022-08-19T03:18:07;13.95;;;9.75;;
38629;SDS011;24384;51.988;4.644;2022-08-19T03:20:33;17.35;;;11.82;;
38629;SDS011;24384;51.988;4.644;2022-08-19T03:23:00;21.23;;;14.02;;
38629;SDS011;24384;51.988;4.644;2022-08-19T03:25:26;24.23;;;16.80;;
38629;SDS011;24384;51.988;4.644;2022-08-19T03:27:52;24.30;;;13.88;;
38629;SDS011;24384;51.988;4.644;2022-08-19T03:30:18;25.48;;;16.27;;
38629;SDS011;24384;51.988;4.644;2022-08-19T03:32:43;23.27;;;16.45;;
38629;SDS011;24384;51.988;4.644;2022-08-19T03:35:09;114.60;;;16.83;;
38629;SDS011;24384;51.988;4.644;2022-08-19T03:37:34;29.10;;;17.42;;
38629;SDS011;24384;51.988;4.644;2022-08-19T03:40:00;32.60;;;21.83;;
38629;SDS011;24384;51.988;4.644;2022-08-19T03:42:28;36.28;;;23.27;;
38629;SDS011;24384;51.988;4.644;2022-08-19T03:44:54;36.35;;;23.42;;
38629;SDS011;24384;51.988;4.644;2022-08-19T03:47:19;29.95;;;21.60;;
38629;SDS011;24384;51.988;4.644;2022-08-19T03:49:45;29.80;;;21.50;;
38629;SDS011;24384;51.988;4.644;2022-08-19T03:52:11;30.65;;;21.40;;
38629;SDS011;24384;51.988;4.644;2022-08-19T03:54:36;30.65;;;19.67;;
38629;SDS011;24384;51.988;4.644;2022-08-19T03:57:04;29.58;;;19.70;;
38629;SDS011;24384;51.988;4.644;2022-08-19T03:59:31;75.00;;;18.30;;
38629;SDS011;24384;51.988;4.644;2022-08-19T04:01:58;205.95;;;16.38;;
38629;SDS011;24384;51.988;4.644;2022-08-19T04:04:25;38.80;;;18.00;;
38629;SDS011;24384;51.988;4.644;2022-08-19T04:06:51;20.95;;;15.38;;
38629;SDS011;24384;51.988;4.644;2022-08-19T04:09:17;29.85;;;20.63;;
38629;SDS011;24384;51.988;4.644;2022-08-19T04:11:45;37.42;;;21.95;;
38629;SDS011;24384;51.988;4.644;2022-08-19T04:14:13;39.30;;;26.17;;
38629;SDS011;24384;51.988;4.644;2022-08-19T04:16:41;47.00;;;29.35;;
38629;SDS011;24384;51.988;4.644;2022-08-19T04:19:09;56.20;;;34.30;;
38629;SDS011;24384;51.988;4.644;2022-08-19T04:21:35;62.60;;;36.33;;
38629;SDS011;24384;51.988;4.644;2022-08-19T04:24:01;74.43;;;38.22;;
38629;SDS011;24384;51.988;4.644;2022-08-19T04:26:28;68.80;;;38.22;;
38629;SDS011;24384;51.988;4.644;2022-08-19T04:28:57;73.28;;;40.35;;
38629;SDS011;24384;51.988;4.644;2022-08-19T04:31:25;68.35;;;39.83;;
38629;SDS011;24384;51.988;4.644;2022-08-19T04:33:53;87.47;;;43.42;;
38629;SDS011;24384;51.988;4.644;2022-08-19T04:36:22;81.00;;;43.22;;
38629;SDS011;24384;51.988;4.644;2022-08-19T04:38:54;89.90;;;44.40;;
38629;SDS011;24384;51.988;4.644;2022-08-19T04:41:20;90.55;;;45.60;;
38629;SDS011;24384;51.988;4.644;2022-08-19T04:44:05;96.32;;;47.08;;
38629;SDS011;24384;51.988;4.644;2022-08-19T04:46:31;101.53;;;47.35;;
38629;SDS011;24384;51.988;4.644;2022-08-19T04:48:57;90.38;;;46.10;;
38629;SDS011;24384;51.988;4.644;2022-08-19T04:51:23;95.53;;;48.90;;
38629;SDS011;24384;51.988;4.644;2022-08-19T04:53:49;94.25;;;46.97;;
38629;SDS011;24384;51.988;4.644;2022-08-19T04:56:17;104.28;;;48.17;;
38629;SDS011;24384;51.988;4.644;2022-08-19T04:58:44;102.72;;;47.42;;
38629;SDS011;24384;51.988;4.644;2022-08-19T05:01:24;101.22;;;46.67;;
38629;SDS011;24384;51.988;4.644;2022-08-19T05:03:53;96.50;;;46.20;;
38629;SDS011;24384;51.988;4.644;2022-08-19T05:06:19;105.28;;;47.55;;
38629;SDS011;24384;51.988;4.644;2022-08-19T05:08:46;89.18;;;45.63;;
38629;SDS011;24384;51.988;4.644;2022-08-19T05:11:13;100.90;;;47.83;;
38629;SDS011;24384;51.988;4.644;2022-08-19T05:13:44;108.18;;;46.80;;
38629;SDS011;24384;51.988;4.644;2022-08-19T05:16:10;91.90;;;45.92;;
38629;SDS011;24384;51.988;4.644;2022-08-19T05:18:37;98.85;;;46.05;;
38629;SDS011;24384;51.988;4.644;2022-08-19T05:21:22;84.50;;;42.22;;
38629;SDS011;24384;51.988;4.644;2022-08-19T05:24:07;92.45;;;43.10;;
38629;SDS011;24384;51.988;4.644;2022-08-19T05:26:39;87.55;;;45.47;;
38629;SDS011;24384;51.988;4.644;2022-08-19T05:29:06;93.47;;;44.33;;
38629;SDS011;24384;51.988;4.644;2022-08-19T05:31:33;90.72;;;44.63;;
38629;SDS011;24384;51.988;4.644;2022-08-19T05:34:00;83.97;;;44.03;;
38629;SDS011;24384;51.988;4.644;2022-08-19T05:36:26;94.82;;;44.53;;
38629;SDS011;24384;51.988;4.644;2022-08-19T05:38:53;80.88;;;43.50;;
38629;SDS011;24384;51.988;4.644;2022-08-19T05:41:19;78.10;;;42.63;;
38629;SDS011;24384;51.988;4.644;2022-08-19T05:43:55;89.15;;;45.28;;
38629;SDS011;24384;51.988;4.644;2022-08-19T05:46:21;83.47;;;43.97;;
38629;SDS011;24384;51.988;4.644;2022-08-19T05:48:47;87.65;;;44.70;;
38629;SDS011;24384;51.988;4.644;2022-08-19T05:51:13;79.15;;;41.60;;
38629;SDS011;24384;51.988;4.644;2022-08-19T05:53:40;80.93;;;40.95;;
38629;SDS011;24384;51.988;4.644;2022-08-19T05:56:06;77.50;;;39.85;;
38629;SDS011;24384;51.988;4.644;2022-08-19T05:58:33;83.63;;;42.08;;
38629;SDS011;24384;51.988;4.644;2022-08-19T06:00:59;86.97;;;43.40;;
38629;SDS011;24384;51.988;4.644;2022-08-19T06:03:29;76.30;;;41.42;;
38629;SDS011;24384;51.988;4.644;2022-08-19T06:05:55;72.57;;;41.05;;
38629;SDS011;24384;51.988;4.644;2022-08-19T06:08:23;70.55;;;38.67;;
38629;SDS011;24384;51.988;4.644;2022-08-19T06:10:48;75.15;;;39.05;;
38629;SDS011;24384;51.988;4.644;2022-08-19T06:13:14;65.45;;;39.17;;
38629;SDS011;24384;51.988;4.644;2022-08-19T06:15:39;65.18;;;38.13;;
38629;SDS011;24384;51.988;4.644;2022-08-19T06:18:08;69.30;;;38.25;;
38629;SDS011;24384;51.988;4.644;2022-08-19T06:20:34;67.50;;;36.72;;
38629;SDS011;24384;51.988;4.644;2022-08-19T06:22:59;62.45;;;36.13;;
38629;SDS011;24384;51.988;4.644;2022-08-19T06:25:25;61.90;;;36.05;;
38629;SDS011;24384;51.988;4.644;2022-08-19T06:27:50;63.10;;;35.75;;
38629;SDS011;24384;51.988;4.644;2022-08-19T06:30:15;60.22;;;37.17;;
38629;SDS011;24384;51.988;4.644;2022-08-19T06:32:41;60.15;;;35.45;;
38629;SDS011;24384;51.988;4.644;2022-08-19T06:35:07;61.67;;;35.25;;
38629;SDS011;24384;51.988;4.644;2022-08-19T06:37:32;59.05;;;35.80;;
38629;SDS011;24384;51.988;4.644;2022-08-19T06:39:58;60.22;;;35.67;;
38629;SDS011;24384;51.988;4.644;2022-08-19T06:42:26;63.95;;;37.03;;
38629;SDS011;24384;51.988;4.644;2022-08-19T06:44:54;60.35;;;36.05;;
38629;SDS011;24384;51.988;4.644;2022-08-19T06:47:22;60.50;;;34.60;;
38629;SDS011;24384;51.988;4.644;2022-08-19T06:49:53;59.20;;;34.53;;
38629;SDS011;24384;51.988;4.644;2022-08-19T06:52:24;54.15;;;34.13;;
38629;SDS011;24384;51.988;4.644;2022-08-19T06:54:52;55.80;;;32.90;;
38629;SDS011;24384;51.988;4.644;2022-08-19T06:57:21;47.73;;;31.93;;
38629;SDS011;24384;51.988;4.644;2022-08-19T06:59:46;58.15;;;32.30;;
38629;SDS011;24384;51.988;4.644;2022-08-19T07:02:12;52.15;;;30.33;;
38629;SDS011;24384;51.988;4.644;2022-08-19T07:04:40;45.10;;;28.05;;
38629;SDS011;24384;51.988;4.644;2022-08-19T07:07:10;45.70;;;29.60;;
38629;SDS011;24384;51.988;4.644;2022-08-19T07:09:38;46.88;;;29.38;;
38629;SDS011;24384;51.988;4.644;2022-08-19T07:12:07;49.17;;;28.95;;
38629;SDS011;24384;51.988;4.644;2022-08-19T07:14:35;49.13;;;27.95;;
38629;SDS011;24384;51.988;4.644;2022-08-19T07:17:03;46.60;;;29.98;;
38629;SDS011;24384;51.988;4.644;2022-08-19T07:19:31;46.78;;;30.00;;
38629;SDS011;24384;51.988;4.644;2022-08-19T07:22:00;41.33;;;29.25;;
38629;SDS011;24384;51.988;4.644;2022-08-19T07:24:28;52.55;;;30.42;;
38629;SDS011;24384;51.988;4.644;2022-08-19T07:26:56;53.65;;;29.88;;
38629;SDS011;24384;51.988;4.644;2022-08-19T07:29:27;51.78;;;31.02;;
38629;SDS011;24384;51.988;4.644;2022-08-19T07:31:55;46.15;;;30.42;;
38629;SDS011;24384;51.988;4.644;2022-08-19T07:34:22;49.72;;;30.35;;
38629;SDS011;24384;51.988;4.644;2022-08-19T07:36:49;42.85;;;29.67;;
38629;SDS011;24384;51.988;4.644;2022-08-19T07:39:19;45.70;;;28.77;;
38629;SDS011;24384;51.988;4.644;2022-08-19T07:41:47;47.17;;;28.48;;
38629;SDS011;24384;51.988;4.644;2022-08-19T07:44:13;41.35;;;28.23;;
38629;SDS011;24384;51.988;4.644;2022-08-19T07:46:40;40.08;;;27.45;;
38629;SDS011;24384;51.988;4.644;2022-08-19T07:49:09;36.47;;;28.05;;
38629;SDS011;24384;51.988;4.644;2022-08-19T07:51:39;45.95;;;29.92;;
38629;SDS011;24384;51.988;4.644;2022-08-19T07:54:04;45.45;;;28.27;;
38629;SDS011;24384;51.988;4.644;2022-08-19T07:56:30;46.92;;;29.35;;
38629;SDS011;24384;51.988;4.644;2022-08-19T07:58:56;40.30;;;27.23;;
38629;SDS011;24384;51.988;4.644;2022-08-19T08:01:23;39.28;;;26.35;;
38629;SDS011;24384;51.988;4.644;2022-08-19T08:03:51;43.35;;;29.55;;
38629;SDS011;24384;51.988;4.644;2022-08-19T08:06:40;47.80;;;27.88;;
38629;SDS011;24384;51.988;4.644;2022-08-19T08:09:27;48.85;;;29.92;;
38629;SDS011;24384;51.988;4.644;2022-08-19T08:11:58;41.97;;;28.80;;
38629;SDS011;24384;51.988;4.644;2022-08-19T08:14:30;48.05;;;28.17;;
38629;SDS011;24384;51.988;4.644;2022-08-19T08:17:23;41.67;;;28.60;;
38629;SDS011;24384;51.988;4.644;2022-08-19T08:19:51;51.92;;;29.95;;
38629;SDS011;24384;51.988;4.644;2022-08-19T08:22:18;38.63;;;27.13;;
38629;SDS011;24384;51.988;4.644;2022-08-19T08:25:10;36.07;;;26.07;;
38629;SDS011;24384;51.988;4.644;2022-08-19T08:27:42;42.65;;;27.35;;
38629;SDS011;24384;51.988;4.644;2022-08-19T08:30:09;43.65;;;26.67;;
38629;SDS011;24384;51.988;4.644;2022-08-19T08:32:37;40.25;;;27.75;;
38629;SDS011;24384;51.988;4.644;2022-08-19T08:35:08;45.05;;;27.73;;
38629;SDS011;24384;51.988;4.644;2022-08-19T08:37:36;43.30;;;27.23;;
38629;SDS011;24384;51.988;4.644;2022-08-19T08:40:12;40.55;;;26.33;;
38629;SDS011;24384;51.988;4.644;2022-08-19T08:42:44;39.28;;;25.30;;
38629;SDS011;24384;51.988;4.644;2022-08-19T08:45:27;35.30;;;22.85;;
38629;SDS011;24384;51.988;4.644;2022-08-19T08:47:54;32.35;;;23.75;;
38629;SDS011;24384;51.988;4.644;2022-08-19T08:50:28;36.05;;;24.15;;
38629;SDS011;24384;51.988;4.644;2022-08-19T08:53:01;42.05;;;23.27;;
38629;SDS011;24384;51.988;4.644;2022-08-19T08:55:29;33.55;;;21.40;;
38629;SDS011;24384;51.988;4.644;2022-08-19T08:58:29;37.10;;;21.08;;
38629;SDS011;24384;51.988;4.644;2022-08-19T09:00:51;30.08;;;19.85;;
38629;SDS011;24384;51.988;4.644;2022-08-19T09:03:19;30.35;;;21.17;;
38629;SDS011;24384;51.988;4.644;2022-08-19T09:08:49;29.13;;;21.35;;
38629;SDS011;24384;51.988;4.644;2022-08-19T09:11:15;31.63;;;19.50;;
38629;SDS011;24384;51.988;4.644;2022-08-19T09:16:40;29.33;;;19.50;;
38629;SDS011;24384;51.988;4.644;2022-08-19T09:19:06;24.98;;;17.98;;
38629;SDS011;24384;51.988;4.644;2022-08-19T09:21:32;28.00;;;17.70;;
38629;SDS011;24384;51.988;4.644;2022-08-19T09:23:59;29.23;;;17.65;;
38629;SDS011;24384;51.988;4.644;2022-08-19T09:26:26;27.98;;;18.05;;
38629;SDS011;24384;51.988;4.644;2022-08-19T09:28:52;25.13;;;16.20;;
38629;SDS011;24384;51.988;4.644;2022-08-19T09:31:20;25.00;;;15.68;;
38629;SDS011;24384;51.988;4.644;2022-08-19T09:33:49;24.45;;;15.48;;
38629;SDS011;24384;51.988;4.644;2022-08-19T09:36:16;26.58;;;15.85;;
38629;SDS011;24384;51.988;4.644;2022-08-19T09:38:43;21.90;;;14.68;;
38629;SDS011;24384;51.988;4.644;2022-08-19T09:41:13;21.55;;;15.77;;
38629;SDS011;24384;51.988;4.644;2022-08-19T09:43:41;25.85;;;15.82;;
38629;SDS011;24384;51.988;4.644;2022-08-19T09:46:09;25.25;;;17.17;;
38629;SDS011;24384;51.988;4.644;2022-08-19T09:48:35;24.90;;;15.85;;
38629;SDS011;24384;51.988;4.644;2022-08-19T09:51:09;27.40;;;16.42;;
38629;SDS011;24384;51.988;4.644;2022-08-19T09:53:38;20.77;;;15.60;;
38629;SDS011;24384;51.988;4.644;2022-08-19T09:56:04;22.15;;;13.95;;
38629;SDS011;24384;51.988;4.644;2022-08-19T09:58:31;20.50;;;13.30;;
38629;SDS011;24384;51.988;4.644;2022-08-19T10:00:59;20.20;;;13.60;;
38629;SDS011;24384;51.988;4.644;2022-08-19T10:03:26;22.75;;;14.70;;
38629;SDS011;24384;51.988;4.644;2022-08-19T10:05:53;17.52;;;15.27;;
38629;SDS011;24384;51.988;4.644;2022-08-19T10:08:20;23.55;;;15.52;;
38629;SDS011;24384;51.988;4.644;2022-08-19T10:10:48;27.85;;;15.75;;
38629;SDS011;24384;51.988;4.644;2022-08-19T10:13:16;21.48;;;14.60;;
38629;SDS011;24384;51.988;4.644;2022-08-19T10:15:43;23.20;;;15.95;;
38629;SDS011;24384;51.988;4.644;2022-08-19T10:18:08;20.17;;;14.75;;
38629;SDS011;24384;51.988;4.644;2022-08-19T10:20:34;18.15;;;12.40;;
38629;SDS011;24384;51.988;4.644;2022-08-19T10:23:01;19.40;;;11.70;;
38629;SDS011;24384;51.988;4.644;2022-08-19T10:25:27;22.50;;;11.80;;
38629;SDS011;24384;51.988;4.644;2022-08-19T10:27:52;18.48;;;11.82;;
38629;SDS011;24384;51.988;4.644;2022-08-19T10:30:18;20.33;;;12.00;;
38629;SDS011;24384;51.988;4.644;2022-08-19T10:32:44;22.40;;;11.43;;
38629;SDS011;24384;51.988;4.644;2022-08-19T10:35:10;16.98;;;9.75;;
38629;SDS011;24384;51.988;4.644;2022-08-19T10:37:37;13.65;;;8.80;;
38629;SDS011;24384;51.988;4.644;2022-08-19T10:40:06;14.23;;;9.05;;
38629;SDS011;24384;51.988;4.644;2022-08-19T10:42:34;15.32;;;9.05;;
38629;SDS011;24384;51.988;4.644;2022-08-19T10:45:01;12.77;;;8.93;;
38629;SDS011;24384;51.988;4.644;2022-08-19T10:47:28;16.85;;;8.68;;
38629;SDS011;24384;51.988;4.644;2022-08-19T10:49:53;16.00;;;8.18;;
38629;SDS011;24384;51.988;4.644;2022-08-19T10:52:43;15.05;;;8.85;;
38629;SDS011;24384;51.988;4.644;2022-08-19T10:55:10;18.52;;;7.80;;
38629;SDS011;24384;51.988;4.644;2022-08-19T10:57:54;17.35;;;6.45;;
38629;SDS011;24384;51.988;4.644;2022-08-19T11:00:20;11.38;;;6.45;;
38629;SDS011;24384;51.988;4.644;2022-08-19T11:02:47;9.00;;;4.80;;
38629;SDS011;24384;51.988;4.644;2022-08-19T11:05:13;6.95;;;3.80;;
38629;SDS011;24384;51.988;4.644;2022-08-19T11:07:40;9.02;;;4.95;;
38629;SDS011;24384;51.988;4.644;2022-08-19T11:10:09;7.55;;;4.15;;
38629;SDS011;24384;51.988;4.644;2022-08-19T11:12:37;10.98;;;4.53;;
38629;SDS011;24384;51.988;4.644;2022-08-19T11:15:06;7.47;;;3.75;;
38629;SDS011;24384;51.988;4.644;2022-08-19T11:17:34;8.10;;;3.92;;
38629;SDS011;24384;51.988;4.644;2022-08-19T11:20:00;12.30;;;5.00;;
38629;SDS011;24384;51.988;4.644;2022-08-19T11:22:29;5.97;;;3.92;;
38629;SDS011;24384;51.988;4.644;2022-08-19T11:24:54;9.07;;;4.18;;
38629;SDS011;24384;51.988;4.644;2022-08-19T11:27:20;7.65;;;4.63;;
38629;SDS011;24384;51.988;4.644;2022-08-19T11:29:46;10.25;;;4.32;;
38629;SDS011;24384;51.988;4.644;2022-08-19T11:32:11;11.48;;;5.30;;
38629;SDS011;24384;51.988;4.644;2022-08-19T11:34:37;9.65;;;5.05;;
38629;SDS011;24384;51.988;4.644;2022-08-19T11:37:04;7.57;;;4.28;;
38629;SDS011;24384;51.988;4.644;2022-08-19T11:39:31;8.82;;;4.05;;
38629;SDS011;24384;51.988;4.644;2022-08-19T11:41:58;7.80;;;4.32;;
38629;SDS011;24384;51.988;4.644;2022-08-19T11:44:24;7.07;;;3.38;;
38629;SDS011;24384;51.988;4.644;2022-08-19T11:46:50;6.63;;;3.05;;
38629;SDS011;24384;51.988;4.644;2022-08-19T11:49:17;4.18;;;2.10;;
38629;SDS011;24384;51.988;4.644;2022-08-19T11:51:44;5.45;;;2.50;;
38629;SDS011;24384;51.988;4.644;2022-08-19T11:54:12;5.13;;;2.67;;
38629;SDS011;24384;51.988;4.644;2022-08-19T11:56:38;7.55;;;2.45;;
38629;SDS011;24384;51.988;4.644;2022-08-19T11:59:04;7.22;;;2.45;;
38629;SDS011;24384;51.988;4.644;2022-08-19T12:01:30;6.20;;;2.85;;
38629;SDS011;24384;51.988;4.644;2022-08-19T12:03:56;8.52;;;2.58;;
38629;SDS011;24384;51.988;4.644;2022-08-19T12:06:24;8.70;;;2.58;;
38629;SDS011;24384;51.988;4.644;2022-08-19T12:08:53;7.35;;;2.60;;
38629;SDS011;24384;51.988;4.644;2022-08-19T12:11:20;5.78;;;2.60;;
38629;SDS011;24384;51.988;4.644;2022-08-19T12:13:45;6.28;;;2.70;;
38629;SDS011;24384;51.988;4.644;2022-08-19T12:16:14;7.60;;;2.03;;
38629;SDS011;24384;51.988;4.644;2022-08-19T12:18:41;4.18;;;1.85;;
38629;SDS011;24384;51.988;4.644;2022-08-19T12:21:15;3.72;;;1.77;;
38629;SDS011;24384;51.988;4.644;2022-08-19T12:23:43;4.70;;;1.55;;
38629;SDS011;24384;51.988;4.644;2022-08-19T12:26:10;4.50;;;1.80;;
38629;SDS011;24384;51.988;4.644;2022-08-19T12:28:36;6.10;;;2.00;;
38629;SDS011;24384;51.988;4.644;2022-08-19T12:31:02;3.97;;;1.60;;
38629;SDS011;24384;51.988;4.644;2022-08-19T12:33:28;3.47;;;2.00;;
38629;SDS011;24384;51.988;4.644;2022-08-19T12:35:54;7.05;;;2.22;;
38629;SDS011;24384;51.988;4.644;2022-08-19T12:38:24;7.05;;;2.45;;
38629;SDS011;24384;51.988;4.644;2022-08-19T12:40:50;10.00;;;2.33;;
38629;SDS011;24384;51.988;4.644;2022-08-19T12:43:16;4.95;;;2.17;;
38629;SDS011;24384;51.988;4.644;2022-08-19T12:45:45;4.68;;;2.28;;
38629;SDS011;24384;51.988;4.644;2022-08-19T12:48:15;7.25;;;2.80;;
38629;SDS011;24384;51.988;4.644;2022-08-19T12:50:42;7.80;;;3.00;;
38629;SDS011;24384;51.988;4.644;2022-08-19T12:53:10;5.65;;;2.88;;
38629;SDS011;24384;51.988;4.644;2022-08-19T12:55:36;12.63;;;3.38;;
38629;SDS011;24384;51.988;4.644;2022-08-19T12:58:01;5.93;;;2.80;;
38629;SDS011;24384;51.988;4.644;2022-08-19T13:00:27;7.68;;;2.75;;
38629;SDS011;24384;51.988;4.644;2022-08-19T13:02:54;6.22;;;2.95;;
38629;SDS011;24384;51.988;4.644;2022-08-19T13:05:25;6.72;;;2.35;;
38629;SDS011;24384;51.988;4.644;2022-08-19T13:07:54;7.00;;;2.13;;
38629;SDS011;24384;51.988;4.644;2022-08-19T13:10:21;5.03;;;2.50;;
38629;SDS011;24384;51.988;4.644;2022-08-19T13:12:50;7.03;;;2.25;;
38629;SDS011;24384;51.988;4.644;2022-08-19T13:15:21;7.63;;;2.50;;
38629;SDS011;24384;51.988;4.644;2022-08-19T13:17:49;5.07;;;1.90;;
38629;SDS011;24384;51.988;4.644;2022-08-19T13:20:17;5.00;;;1.95;;
38629;SDS011;24384;51.988;4.644;2022-08-19T13:22:45;6.18;;;4.68;;
38629;SDS011;24384;51.988;4.644;2022-08-19T13:25:12;7.65;;;4.60;;
38629;SDS011;24384;51.988;4.644;2022-08-19T13:27:38;9.05;;;5.60;;
38629;SDS011;24384;51.988;4.644;2022-08-19T13:30:06;8.60;;;5.47;;
38629;SDS011;24384;51.988;4.644;2022-08-19T13:32:52;9.00;;;6.47;;
38629;SDS011;24384;51.988;4.644;2022-08-19T13:35:36;10.32;;;5.55;;
38629;SDS011;24384;51.988;4.644;2022-08-19T13:38:22;9.95;;;5.47;;
38629;SDS011;24384;51.988;4.644;2022-08-19T13:40:49;9.43;;;5.80;;
38629;SDS011;24384;51.988;4.644;2022-08-19T13:43:16;9.00;;;6.32;;
38629;SDS011;24384;51.988;4.644;2022-08-19T13:45:42;10.07;;;5.28;;
38629;SDS011;24384;51.988;4.644;2022-08-19T13:48:08;8.00;;;5.43;;
38629;SDS011;24384;51.988;4.644;2022-08-19T13:50:34;12.82;;;8.52;;
38629;SDS011;24384;51.988;4.644;2022-08-19T13:53:06;14.25;;;8.55;;
38629;SDS011;24384;51.988;4.644;2022-08-19T13:55:33;12.73;;;8.70;;
38629;SDS011;24384;51.988;4.644;2022-08-19T13:57:59;10.35;;;7.95;;
38629;SDS011;24384;51.988;4.644;2022-08-19T14:00:30;9.25;;;7.47;;
38629;SDS011;24384;51.988;4.644;2022-08-19T14:02:57;17.87;;;7.50;;
38629;SDS011;24384;51.988;4.644;2022-08-19T14:05:24;11.18;;;6.95;;
38629;SDS011;24384;51.988;4.644;2022-08-19T14:07:51;15.05;;;8.30;;
38629;SDS011;24384;51.988;4.644;2022-08-19T14:10:16;10.68;;;7.65;;
38629;SDS011;24384;51.988;4.644;2022-08-19T14:12:43;10.88;;;7.30;;
38629;SDS011;24384;51.988;4.644;2022-08-19T14:15:09;10.75;;;7.63;;
38629;SDS011;24384;51.988;4.644;2022-08-19T14:17:37;12.43;;;7.75;;
38629;SDS011;24384;51.988;4.644;2022-08-19T14:20:05;12.45;;;7.80;;
38629;SDS011;24384;51.988;4.644;2022-08-19T14:22:34;16.15;;;9.10;;
38629;SDS011;24384;51.988;4.644;2022-08-19T14:25:04;14.00;;;8.27;;
38629;SDS011;24384;51.988;4.644;2022-08-19T14:27:35;12.95;;;8.68;;
38629;SDS011;24384;51.988;4.644;2022-08-19T14:30:01;12.30;;;8.25;;
38629;SDS011;24384;51.988;4.644;2022-08-19T14:32:31;12.95;;;7.97;;
38629;SDS011;24384;51.988;4.644;2022-08-19T14:34:57;11.40;;;7.82;;
38629;SDS011;24384;51.988;4.644;2022-08-19T14:37:22;9.65;;;6.97;;
38629;SDS011;24384;51.988;4.644;2022-08-19T14:39:48;12.45;;;7.40;;
38629;SDS011;24384;51.988;4.644;2022-08-19T14:42:13;12.85;;;6.97;;
38629;SDS011;24384;51.988;4.644;2022-08-19T14:44:40;12.07;;;7.53;;